createdAt,value
2023-02-12T00:02:18.461Z,4.87
2023-02-12T00:04:47.608Z,4.84
2023-02-12T00:07:14.782Z,4.79
2023-02-12T00:09:41.708Z,4.83
2023-02-12T00:12:09.361Z,4.78
2023-02-12T00:14:39.321Z,4.77
2023-02-12T00:17:06.476Z,4.76
2023-02-12T00:19:33.358Z,4.76
2023-02-12T00:22:00.583Z,4.79
2023-02-12T00:24:27.974Z,4.76
2023-02-12T00:26:55.200Z,4.76
2023-02-12T00:29:22.209Z,4.77
2023-02-12T00:31:49.450Z,4.79
2023-02-12T00:34:16.351Z,4.81
2023-02-12T00:36:43.640Z,4.82
2023-02-12T00:39:10.694Z,4.87
2023-02-12T00:41:38.067Z,4.89
2023-02-12T00:44:05.067Z,4.89
2023-02-12T00:46:35.275Z,4.90
2023-02-12T00:49:02.235Z,4.96
2023-02-12T00:51:31.806Z,4.97
2023-02-12T00:54:01.710Z,4.98
2023-02-12T00:56:31.375Z,4.96
2023-02-12T00:58:58.305Z,4.96
2023-02-12T01:01:25.619Z,4.97
2023-02-12T01:03:52.649Z,4.98
2023-02-12T01:06:20.012Z,4.99
2023-02-12T01:08:50.028Z,5.00
2023-02-12T01:11:17.610Z,4.98
2023-02-12T01:13:44.549Z,5.01
2023-02-12T01:16:14.892Z,5.04
2023-02-12T01:18:41.931Z,5.03
2023-02-12T01:21:10.833Z,4.98
2023-02-12T01:23:37.933Z,4.95
2023-02-12T01:26:05.223Z,4.91
2023-02-12T01:28:32.189Z,4.89
2023-02-12T01:30:59.553Z,4.92
2023-02-12T01:33:27.132Z,4.93
2023-02-12T01:35:55.551Z,4.93
2023-02-12T01:38:22.847Z,4.95
2023-02-12T01:40:50.007Z,4.91
2023-02-12T01:43:16.874Z,4.89
2023-02-12T01:45:46.976Z,4.84
2023-02-12T01:48:14.992Z,4.87
2023-02-12T01:50:43.950Z,4.85
2023-02-12T01:53:19.993Z,4.84
2023-02-12T01:55:48.663Z,4.81
2023-02-12T01:58:16.055Z,4.79
2023-02-12T02:00:43.644Z,4.78
2023-02-12T02:03:10.758Z,4.79
2023-02-12T02:05:56.660Z,4.83
2023-02-12T02:08:23.843Z,4.84
2023-02-12T02:10:51.267Z,4.83
2023-02-12T02:13:37.680Z,4.73
2023-02-12T02:16:14.563Z,4.62
2023-02-12T02:18:52.259Z,4.53
2023-02-12T02:21:31.370Z,4.47
2023-02-12T02:24:10.396Z,4.39
2023-02-12T02:26:40.618Z,4.37
2023-02-12T02:29:10.664Z,4.34
2023-02-12T02:31:50.172Z,4.36
2023-02-12T02:34:36.926Z,4.39
2023-02-12T02:37:16.425Z,4.36
2023-02-12T02:39:59.752Z,4.39
2023-02-12T02:42:33.042Z,4.41
2023-02-12T02:45:04.240Z,4.37
2023-02-12T02:47:38.274Z,4.34
2023-02-12T02:50:14.290Z,4.43
2023-02-12T02:52:47.760Z,4.42
2023-02-12T02:55:17.721Z,4.39
2023-02-12T02:57:48.034Z,4.35
2023-02-12T03:00:18.536Z,4.35
2023-02-12T03:02:50.269Z,4.27
2023-02-12T03:05:22.753Z,4.25
2023-02-12T03:07:57.293Z,4.16
2023-02-12T03:10:26.636Z,4.12
2023-02-12T03:13:00.848Z,4.34
2023-02-12T03:15:33.250Z,4.45
2023-02-12T03:18:03.941Z,4.51
2023-02-12T03:20:33.458Z,4.63
2023-02-12T03:23:09.951Z,4.63
2023-02-12T03:26:03.135Z,4.72
2023-02-12T03:28:32.080Z,4.71
2023-02-12T03:31:02.009Z,4.72
2023-02-12T03:33:39.876Z,4.76
2023-02-12T03:36:25.571Z,4.80
2023-02-12T03:38:54.393Z,4.83
2023-02-12T03:41:44.252Z,4.84
2023-02-12T03:44:30.214Z,4.83
2023-02-12T03:47:16.211Z,4.85
2023-02-12T03:49:51.243Z,4.79
2023-02-12T03:52:18.110Z,4.74
2023-02-12T03:54:48.468Z,4.73
2023-02-12T03:57:25.158Z,4.74
2023-02-12T03:59:52.478Z,4.75
2023-02-12T04:02:19.672Z,4.77
2023-02-12T04:04:47.238Z,4.84
2023-02-12T04:07:14.540Z,4.84
2023-02-12T04:09:41.750Z,4.84
2023-02-12T04:12:15.386Z,4.84
2023-02-12T04:14:42.534Z,4.81
2023-02-12T04:17:22.182Z,4.80
2023-02-12T04:19:49.749Z,4.80
2023-02-12T04:22:45.432Z,4.81
2023-02-12T04:25:29.601Z,4.82
2023-02-12T04:28:19.537Z,4.81
2023-02-12T04:30:58.972Z,4.80
2023-02-12T04:33:28.773Z,4.75
2023-02-12T04:36:09.306Z,4.75
2023-02-12T04:38:38.894Z,4.70
2023-02-12T04:41:06.997Z,4.71
2023-02-12T04:43:36.876Z,4.63
2023-02-12T04:46:05.289Z,4.59
2023-02-12T04:48:32.266Z,4.53
2023-02-12T04:50:59.395Z,4.49
2023-02-12T04:53:26.356Z,4.50
2023-02-12T04:55:53.826Z,4.49
2023-02-12T04:58:20.851Z,4.53
2023-02-12T05:00:48.081Z,4.54
2023-02-12T05:03:14.958Z,4.52
2023-02-12T05:05:42.258Z,4.50
2023-02-12T05:08:11.966Z,4.50
2023-02-12T05:10:39.183Z,4.47
2023-02-12T05:13:06.176Z,4.50
2023-02-12T05:15:33.374Z,4.52
2023-02-12T05:18:00.251Z,4.51
2023-02-12T05:20:27.413Z,4.54
2023-02-12T05:22:54.369Z,4.56
2023-02-12T05:25:23.761Z,4.59
2023-02-12T05:27:50.618Z,4.58
2023-02-12T05:30:17.819Z,4.60
2023-02-12T05:32:44.688Z,4.58
2023-02-12T05:35:11.953Z,4.62
2023-02-12T05:37:38.828Z,4.66
2023-02-12T05:40:06.400Z,4.62
2023-02-12T05:42:33.241Z,4.65
2023-02-12T05:45:02.964Z,4.61
2023-02-12T05:47:30.208Z,4.59
2023-02-12T05:49:57.450Z,4.60
2023-02-12T05:52:24.331Z,4.59
2023-02-12T05:54:51.486Z,4.61
2023-02-12T05:57:18.339Z,4.63
2023-02-12T05:59:45.634Z,4.64
2023-02-12T06:02:12.638Z,4.67
2023-02-12T06:04:39.866Z,4.69
2023-02-12T06:07:07.389Z,4.68
2023-02-12T06:09:35.226Z,4.73
2023-02-12T06:12:02.112Z,4.74
2023-02-12T06:14:31.799Z,4.80
2023-02-12T06:16:59.034Z,4.82
2023-02-12T06:19:26.359Z,4.83
2023-02-12T06:21:55.413Z,4.86
2023-02-12T06:24:22.739Z,4.88
2023-02-12T06:26:50.956Z,4.87
2023-02-12T06:29:18.841Z,4.89
2023-02-12T06:31:45.914Z,4.90
2023-02-12T06:34:13.847Z,4.93
2023-02-12T06:36:41.935Z,4.93
2023-02-12T06:39:09.159Z,4.88
2023-02-12T06:41:36.141Z,4.93
2023-02-12T06:44:03.727Z,4.96
2023-02-12T06:46:31.031Z,5.01
2023-02-12T06:48:59.267Z,5.00
2023-02-12T06:51:27.221Z,4.99
2023-02-12T06:53:55.676Z,5.03
2023-02-12T06:56:24.005Z,5.01
2023-02-12T06:58:55.835Z,5.04
2023-02-12T07:01:24.646Z,5.07
2023-02-12T07:03:53.364Z,5.12
2023-02-12T07:06:20.879Z,5.18
2023-02-12T07:08:48.531Z,5.22
2023-02-12T07:11:15.448Z,5.27
2023-02-12T07:13:42.778Z,5.32
2023-02-12T07:16:14.069Z,5.30
2023-02-12T07:18:44.353Z,5.36
2023-02-12T07:21:12.033Z,5.38
2023-02-12T07:23:39.616Z,5.38
2023-02-12T07:26:07.879Z,5.40
2023-02-12T07:28:35.340Z,5.44
2023-02-12T07:31:11.286Z,5.50
2023-02-12T07:33:39.269Z,5.55
2023-02-12T07:36:07.807Z,5.60
2023-02-12T07:38:40.020Z,5.66
2023-02-12T07:41:10.532Z,5.67
2023-02-12T07:43:38.634Z,5.69
2023-02-12T07:46:08.102Z,5.72
2023-02-12T07:48:35.393Z,5.74
2023-02-12T07:51:10.124Z,5.78
2023-02-12T07:53:40.196Z,5.91
2023-02-12T07:56:11.629Z,5.93
2023-02-12T07:58:39.289Z,6.03
2023-02-12T08:01:12.293Z,6.12
2023-02-12T08:03:39.636Z,6.26
2023-02-12T08:06:10.838Z,6.34
2023-02-12T08:08:39.029Z,6.45
2023-02-12T08:11:07.677Z,6.54
2023-02-12T08:13:35.535Z,6.62
2023-02-12T08:16:03.672Z,6.66
2023-02-12T08:18:32.174Z,6.70
2023-02-12T08:21:05.776Z,6.71
2023-02-12T08:23:33.334Z,6.69
2023-02-12T08:26:13.774Z,6.68
2023-02-12T08:28:46.523Z,6.69
2023-02-12T08:31:15.059Z,6.71
2023-02-12T08:33:42.407Z,6.73
2023-02-12T08:36:10.603Z,6.76
2023-02-12T08:38:40.419Z,6.82
2023-02-12T08:41:08.837Z,6.87
2023-02-12T08:43:39.521Z,6.91
2023-02-12T08:46:09.572Z,6.94
2023-02-12T08:48:36.984Z,7.09
2023-02-12T08:51:24.349Z,7.12
2023-02-12T08:53:53.011Z,7.20
2023-02-12T08:56:20.060Z,7.26
2023-02-12T08:58:47.301Z,7.39
2023-02-12T09:01:16.257Z,7.47
2023-02-12T09:03:43.946Z,7.56
2023-02-12T09:06:11.003Z,7.66
2023-02-12T09:08:38.861Z,7.73
2023-02-12T09:11:16.723Z,7.85
2023-02-12T09:13:45.276Z,7.96
2023-02-12T09:16:12.715Z,8.06
2023-02-12T09:18:40.304Z,8.18
2023-02-12T09:21:12.143Z,8.22
2023-02-12T09:23:39.732Z,8.17
2023-02-12T09:26:07.577Z,8.44
2023-02-12T09:28:35.337Z,8.44
2023-02-12T09:31:09.543Z,8.54
2023-02-12T09:33:37.030Z,8.58
2023-02-12T09:36:04.727Z,8.77
2023-02-12T09:38:32.638Z,8.82
2023-02-12T09:41:09.117Z,8.70
2023-02-12T09:43:36.308Z,8.75
2023-02-12T09:46:29.178Z,8.80
2023-02-12T09:49:04.647Z,8.94
2023-02-12T09:51:32.258Z,9.00
2023-02-12T09:54:13.401Z,8.94
2023-02-12T09:56:42.549Z,9.19
2023-02-12T09:59:13.295Z,9.51
2023-02-12T10:01:40.829Z,9.78
2023-02-12T10:04:08.440Z,9.86
2023-02-12T10:06:44.129Z,9.62
2023-02-12T10:09:21.007Z,9.62
2023-02-12T10:11:54.841Z,9.78
2023-02-12T10:14:51.584Z,9.58
2023-02-12T10:17:23.739Z,9.85
2023-02-12T10:20:01.159Z,9.76
2023-02-12T10:22:56.809Z,9.67
2023-02-12T10:25:31.773Z,9.54
2023-02-12T10:28:02.443Z,9.21
2023-02-12T10:30:53.076Z,9.24
2023-02-12T10:33:26.870Z,9.33
2023-02-12T10:36:02.796Z,9.52
2023-02-12T10:38:33.803Z,9.37
2023-02-12T10:41:02.850Z,9.30
2023-02-12T10:43:30.806Z,9.40
2023-02-12T10:45:58.643Z,9.32
2023-02-12T10:48:46.207Z,9.40
2023-02-12T10:51:34.178Z,9.52
2023-02-12T10:54:21.471Z,9.51
2023-02-12T10:56:49.875Z,9.61
2023-02-12T10:59:24.208Z,9.59
2023-02-12T11:01:52.116Z,9.64
2023-02-12T11:04:21.357Z,9.60
2023-02-12T11:06:58.375Z,9.62
2023-02-12T11:09:30.312Z,9.65
2023-02-12T11:12:02.373Z,9.53
2023-02-12T11:14:30.986Z,9.50
2023-02-12T11:17:00.656Z,9.29
2023-02-12T11:19:30.799Z,9.23
2023-02-12T11:22:11.278Z,9.60
2023-02-12T11:24:38.755Z,10.04
2023-02-12T11:27:18.358Z,10.45
2023-02-12T11:29:49.791Z,10.58
2023-02-12T11:32:19.352Z,10.67
2023-02-12T11:35:06.843Z,10.43
2023-02-12T11:37:38.343Z,10.16
2023-02-12T11:40:07.530Z,10.41
2023-02-12T11:42:37.581Z,10.40
2023-02-12T11:45:07.475Z,10.44
2023-02-12T11:47:36.847Z,10.82
2023-02-12T11:50:12.833Z,10.79
2023-02-12T11:52:43.437Z,10.77
2023-02-12T11:55:20.343Z,10.60
2023-02-12T11:57:50.136Z,10.39
2023-02-12T12:00:18.431Z,10.11
2023-02-12T12:03:10.025Z,9.77
2023-02-12T12:05:39.734Z,9.59
2023-02-12T12:08:20.970Z,9.31
2023-02-12T12:10:51.760Z,9.09
2023-02-12T12:13:26.022Z,8.91
2023-02-12T12:16:19.214Z,9.20
2023-02-12T12:19:15.490Z,9.88
2023-02-12T12:21:42.764Z,10.31
2023-02-12T12:24:11.207Z,10.22
2023-02-12T12:26:40.587Z,10.03
2023-02-12T12:29:18.665Z,9.91
2023-02-12T12:31:56.948Z,9.69
2023-02-12T12:34:28.389Z,9.60
2023-02-12T12:36:56.951Z,9.49
2023-02-12T12:39:43.563Z,9.52
2023-02-12T12:42:13.918Z,9.43
2023-02-12T12:44:55.122Z,9.45
2023-02-12T12:47:55.801Z,9.45
2023-02-12T12:50:26.745Z,9.42
2023-02-12T12:53:00.273Z,9.53
2023-02-12T12:55:46.616Z,9.55
2023-02-12T12:58:26.080Z,9.59
2023-02-12T13:01:13.283Z,9.56
2023-02-12T13:03:44.157Z,9.62
2023-02-12T13:06:27.473Z,9.72
2023-02-12T13:09:04.151Z,9.66
2023-02-12T13:11:39.459Z,9.64
2023-02-12T13:14:29.170Z,9.65
2023-02-12T13:17:08.916Z,9.63
2023-02-12T13:19:36.351Z,9.70
2023-02-12T13:22:09.171Z,9.76
2023-02-12T13:24:44.326Z,9.74
2023-02-12T13:27:15.212Z,9.52
2023-02-12T13:29:50.184Z,9.34
2023-02-12T13:32:27.835Z,9.16
2023-02-12T13:34:57.886Z,9.05
2023-02-12T13:37:35.667Z,9.05
2023-02-12T13:40:07.730Z,9.10
2023-02-12T13:42:51.270Z,9.17
2023-02-12T13:45:18.868Z,9.22
2023-02-12T13:48:05.915Z,9.13
2023-02-12T13:50:38.287Z,9.00
2023-02-12T13:53:14.238Z,8.90
2023-02-12T13:55:50.095Z,8.88
2023-02-12T13:58:39.619Z,8.89
2023-02-12T14:01:18.917Z,9.02
2023-02-12T14:03:50.309Z,9.20
2023-02-12T14:06:20.764Z,9.12
2023-02-12T14:08:51.677Z,9.07
2023-02-12T14:11:21.841Z,9.03
2023-02-12T14:14:00.808Z,8.94
2023-02-12T14:16:31.525Z,8.89
2023-02-12T14:19:30.092Z,8.88
2023-02-12T14:21:58.348Z,8.68
2023-02-12T14:24:37.885Z,8.66
2023-02-12T14:27:27.511Z,8.66
2023-02-12T14:30:07.680Z,8.64
2023-02-12T14:32:59.601Z,8.53
2023-02-12T14:35:48.586Z,8.48
2023-02-12T14:38:16.132Z,8.49
2023-02-12T14:40:48.606Z,8.47
2023-02-12T14:43:34.284Z,8.39
2023-02-12T14:46:21.902Z,8.35
2023-02-12T14:48:52.393Z,8.32
2023-02-12T14:51:23.506Z,8.21
2023-02-12T14:53:54.051Z,8.14
2023-02-12T14:56:25.810Z,8.10
2023-02-12T14:58:55.267Z,8.06
2023-02-12T15:01:44.149Z,8.02
2023-02-12T15:04:17.154Z,7.95
2023-02-12T15:06:51.162Z,7.88
2023-02-12T15:09:35.500Z,7.80
2023-02-12T15:12:23.538Z,7.75
2023-02-12T15:14:57.051Z,7.70
2023-02-12T15:17:28.596Z,7.67
2023-02-12T15:20:01.550Z,7.61
2023-02-12T15:22:37.051Z,7.59
2023-02-12T15:25:23.365Z,7.53
2023-02-12T15:27:56.522Z,7.50
2023-02-12T15:30:28.945Z,7.43
2023-02-12T15:33:03.024Z,7.36
2023-02-12T15:35:34.264Z,7.34
2023-02-12T15:38:03.254Z,7.29
2023-02-12T15:40:32.250Z,7.25
2023-02-12T15:43:02.272Z,7.23
2023-02-12T15:45:31.677Z,7.17
2023-02-12T15:48:22.915Z,7.12
2023-02-12T15:50:56.310Z,7.12
2023-02-12T15:53:25.314Z,7.06
2023-02-12T15:55:52.997Z,7.06
2023-02-12T15:58:30.255Z,7.00
2023-02-12T16:01:04.460Z,6.97
2023-02-12T16:03:38.601Z,6.94
2023-02-12T16:06:17.398Z,6.90
2023-02-12T16:08:53.774Z,6.89
2023-02-12T16:11:22.489Z,6.89
2023-02-12T16:13:52.497Z,6.87
2023-02-12T16:16:23.694Z,6.81
2023-02-12T16:19:14.564Z,6.83
2023-02-12T16:21:45.151Z,6.78
2023-02-12T16:24:23.358Z,6.81
2023-02-12T16:26:51.332Z,6.74
2023-02-12T16:29:19.405Z,6.70
2023-02-12T16:31:54.210Z,6.65
2023-02-12T16:34:35.006Z,6.63
2023-02-12T16:37:23.891Z,6.61
2023-02-12T16:39:55.357Z,6.56
2023-02-12T16:42:27.783Z,6.53
2023-02-12T16:44:59.151Z,6.48
2023-02-12T16:47:28.857Z,6.45
2023-02-12T16:50:02.829Z,6.40
2023-02-12T16:52:35.279Z,6.34
2023-02-12T16:55:03.424Z,6.29
2023-02-12T16:57:34.807Z,6.22
2023-02-12T17:00:05.714Z,6.22
2023-02-12T17:02:34.527Z,6.23
2023-02-12T17:05:06.259Z,6.16
2023-02-12T17:07:34.851Z,6.14
2023-02-12T17:10:03.554Z,6.13
2023-02-12T17:12:33.521Z,6.17
2023-02-12T17:15:04.233Z,6.20
2023-02-12T17:17:32.714Z,6.17
2023-02-12T17:20:01.624Z,6.13
2023-02-12T17:22:37.857Z,6.08
2023-02-12T17:25:05.966Z,6.08
2023-02-12T17:27:33.503Z,6.05
2023-02-12T17:30:02.289Z,6.01
2023-02-12T17:32:31.563Z,6.04
2023-02-12T17:34:59.980Z,6.02
2023-02-12T17:37:30.209Z,5.98
2023-02-12T17:39:58.305Z,5.92
2023-02-12T17:42:27.782Z,6.01
2023-02-12T17:44:57.508Z,5.97
2023-02-12T17:47:26.057Z,5.93
2023-02-12T17:49:57.892Z,5.91
2023-02-12T17:52:26.032Z,5.88
2023-02-12T17:54:56.766Z,5.90
2023-02-12T17:57:25.411Z,5.87
2023-02-12T17:59:59.269Z,5.86
2023-02-12T18:02:32.800Z,5.86
2023-02-12T18:05:02.177Z,5.88
2023-02-12T18:07:32.823Z,5.87
2023-02-12T18:10:05.972Z,5.82
2023-02-12T18:12:34.932Z,5.82
2023-02-12T18:15:08.473Z,5.83
2023-02-12T18:17:37.306Z,5.84
2023-02-12T18:20:05.886Z,5.86
2023-02-12T18:22:35.864Z,5.84
2023-02-12T18:25:04.721Z,5.80
2023-02-12T18:27:33.588Z,5.80
2023-02-12T18:30:03.406Z,5.82
2023-02-12T18:32:31.589Z,5.84
2023-02-12T18:34:59.728Z,5.85
2023-02-12T18:37:33.576Z,5.82
2023-02-12T18:40:03.097Z,5.78
2023-02-12T18:42:33.321Z,5.79
2023-02-12T18:45:03.044Z,5.82
2023-02-12T18:47:31.327Z,5.81
2023-02-12T18:50:03.306Z,5.80
2023-02-12T18:52:32.623Z,5.79
2023-02-12T18:55:01.110Z,5.79
2023-02-12T18:57:30.330Z,5.80
2023-02-12T19:00:01.605Z,5.75
2023-02-12T19:02:30.442Z,5.76
2023-02-12T19:04:58.899Z,5.73
2023-02-12T19:07:28.162Z,5.72
2023-02-12T19:09:57.727Z,5.70
2023-02-12T19:12:27.361Z,5.71
2023-02-12T19:14:55.757Z,5.68
2023-02-12T19:17:23.989Z,5.68
2023-02-12T19:19:53.935Z,5.71
2023-02-12T19:22:22.189Z,5.69
2023-02-12T19:24:51.944Z,5.70
2023-02-12T19:27:19.977Z,5.73
2023-02-12T19:29:48.629Z,5.72
2023-02-12T19:32:17.857Z,5.69
2023-02-12T19:34:46.868Z,5.71
2023-02-12T19:37:20.372Z,5.66
2023-02-12T19:39:48.754Z,5.58
2023-02-12T19:42:18.182Z,5.61
2023-02-12T19:44:54.221Z,5.59
2023-02-12T19:47:24.820Z,5.55
2023-02-12T19:49:55.753Z,5.52
2023-02-12T19:52:25.515Z,5.55
2023-02-12T19:54:56.718Z,5.53
2023-02-12T19:57:26.181Z,5.57
2023-02-12T19:59:56.106Z,5.52
2023-02-12T20:02:25.606Z,5.54
2023-02-12T20:04:54.302Z,5.58
2023-02-12T20:07:26.476Z,5.58
2023-02-12T20:09:55.186Z,5.54
2023-02-12T20:12:23.443Z,5.50
2023-02-12T20:14:57.263Z,5.51
2023-02-12T20:17:26.785Z,5.52
2023-02-12T20:19:57.733Z,5.43
2023-02-12T20:22:28.869Z,5.39
2023-02-12T20:24:57.782Z,5.45
2023-02-12T20:27:25.871Z,5.44
2023-02-12T20:29:59.967Z,5.52
2023-02-12T20:32:28.358Z,5.46
2023-02-12T20:34:57.450Z,5.49
2023-02-12T20:37:26.640Z,5.47
2023-02-12T20:39:55.115Z,5.44
2023-02-12T20:42:31.611Z,5.47
2023-02-12T20:45:01.828Z,5.48
2023-02-12T20:47:29.883Z,5.53
2023-02-12T20:49:58.590Z,5.56
2023-02-12T20:52:29.139Z,5.49
2023-02-12T20:54:59.429Z,5.45
2023-02-12T20:57:32.034Z,5.43
2023-02-12T21:00:06.155Z,5.43
2023-02-12T21:02:35.407Z,5.43
2023-02-12T21:05:03.823Z,5.47
2023-02-12T21:07:34.833Z,5.44
2023-02-12T21:10:06.401Z,5.41
2023-02-12T21:12:36.835Z,5.39
2023-02-12T21:15:05.550Z,5.42
2023-02-12T21:17:34.207Z,5.40
2023-02-12T21:20:04.887Z,5.40
2023-02-12T21:22:32.840Z,5.35
2023-02-12T21:25:04.083Z,5.30
2023-02-12T21:27:31.796Z,5.35
2023-02-12T21:29:59.863Z,5.31
2023-02-12T21:32:31.194Z,5.25
2023-02-12T21:34:59.549Z,5.21
2023-02-12T21:37:27.449Z,5.23
2023-02-12T21:39:55.112Z,5.29
2023-02-12T21:42:22.666Z,5.25
2023-02-12T21:44:50.732Z,5.21
2023-02-12T21:47:17.998Z,5.21
2023-02-12T21:49:45.687Z,5.18
2023-02-12T21:52:15.232Z,5.16
2023-02-12T21:54:45.185Z,5.10
2023-02-12T21:57:18.303Z,5.06
2023-02-12T21:59:46.147Z,5.13
2023-02-12T22:02:13.336Z,5.21
2023-02-12T22:04:40.785Z,5.27
2023-02-12T22:07:08.286Z,5.33
2023-02-12T22:09:35.726Z,5.28
2023-02-12T22:12:02.578Z,5.26
2023-02-12T22:14:29.908Z,5.25
2023-02-12T22:16:56.892Z,5.25
2023-02-12T22:19:24.526Z,5.21
2023-02-12T22:21:51.918Z,5.29
2023-02-12T22:24:19.798Z,5.27
2023-02-12T22:26:46.706Z,5.29
2023-02-12T22:29:14.990Z,5.27
2023-02-12T22:31:43.104Z,5.29
2023-02-12T22:34:12.459Z,5.26
2023-02-12T22:36:39.937Z,5.29
2023-02-12T22:39:10.058Z,5.28
2023-02-12T22:41:37.974Z,5.28
2023-02-12T22:44:05.528Z,5.24
2023-02-12T22:46:33.231Z,5.21
2023-02-12T22:49:00.491Z,5.17
2023-02-12T22:51:29.159Z,5.18
2023-02-12T22:53:56.610Z,5.15
2023-02-12T22:56:24.142Z,5.15
2023-02-12T22:58:55.807Z,5.09
2023-02-12T23:01:23.606Z,5.07
2023-02-12T23:03:51.613Z,5.07
2023-02-12T23:06:19.535Z,5.06
2023-02-12T23:08:49.458Z,5.03
2023-02-12T23:11:16.786Z,4.97
2023-02-12T23:13:44.195Z,4.93
2023-02-12T23:16:13.502Z,4.96
2023-02-12T23:18:40.949Z,4.96
2023-02-12T23:21:08.440Z,4.92
2023-02-12T23:23:35.849Z,4.95
2023-02-12T23:26:02.808Z,4.95
2023-02-12T23:28:30.371Z,4.88
2023-02-12T23:30:58.139Z,4.86
2023-02-12T23:33:25.718Z,4.87
2023-02-12T23:35:52.613Z,4.88
2023-02-12T23:38:19.946Z,4.82
2023-02-12T23:40:49.148Z,4.81
2023-02-12T23:43:21.564Z,4.80
2023-02-12T23:45:48.809Z,4.79
2023-02-12T23:48:16.077Z,4.72
2023-02-12T23:50:45.336Z,4.68
2023-02-12T23:53:12.701Z,4.63
2023-02-12T23:55:40.018Z,4.67
2023-02-12T23:58:07.719Z,4.75
